Terminal Aerodrome Forecast
Issued by NWS

Home | Current Version | Previous Version | Text Only | Print | Product List | Glossary Off
Versions: 1 2 3 4 5 6 7 8 9 10 11 12 13 14 15 16 17 18 19 20

000
FTUS43 KBIS 162300
TAFDIK
TAF
KDIK 162337Z 1700/1724 13006KT P6SM OVC014
     FM171800 15012KT P6SM BKN020
     FM172200 14009KT P6SM SCT025=

USA.gov is the U.S. government's official web portal to all federal, state and local government web resources and services.